• Join FlightAware (Why Join?)
  • Login
  • US Flag 
05:10PM EDT


 

Airport Tracker/Info


-or-


 

Live Flight TrackerFlight Track Log ✈ N682RW ✈ 29-Sep-2013 ✈ KOPF - KDTW

Flight Track Log - Related Links

Times and Time Zones

All times are in EDT time to prevent confusion due to time zone crossing. See the N682RW flight status page for this flight to view local times or setup timezone preferences in your user account.

Time Position Orientation Groundspeed Altitude Reporting Facility
EDT Latitude Longitude Course Direction KTS MPH feet Rate Location/Type
06:07PM 25.9092 -80.2661 80° East 173 199 400  Level Miami Center
06:09PM 25.9239 -80.1694 80° East 228 262 3,900 2,220 Climbing Miami Center
06:09PM 25.9786 -80.1478 20° North 274 315 5,700 2,100 Climbing Miami Center
06:10PM 26.0214 -80.1953 315° West 286 329 7,400 2,520 Climbing Miami Center
06:11PM 26.0489 -80.2725 292° West 299 344 10,400 2,280 Climbing Miami Center
06:12PM 26.1122 -80.3344 319° Northwest 299 344 12,000 1,740 Climbing Miami Center
06:13PM 26.2008 -80.3764 337° Northwest 308 354 13,900 2,400 Climbing Miami Center
06:14PM 26.2997 -80.4394 330° Northwest 360 414 16,900 2,400 Climbing Miami Center
06:15PM 26.3967 -80.4842 338° Northwest 372 428 18,800 1,860 Climbing Miami Center
06:16PM 26.5022 -80.5222 342° North 385 443 20,700 1,800 Climbing Miami Center
06:17PM 26.6078 -80.5650 340° North 391 450 22,400 1,560 Climbing Miami Center
06:18PM 26.7050 -80.6028 341° North 406 467 23,900 1,620 Climbing Miami Center
06:19PM 26.8247 -80.6533 339° North 406 467 25,700 1,620 Climbing Miami Center
06:20PM 26.9364 -80.6942 342° North 406 467 27,200 1,320 Climbing Miami Center
06:21PM 27.0458 -80.7375 341° North 411 473 28,400 1,380 Climbing Miami Center
06:22PM 27.1575 -80.7808 341° North 417 480 30,000 1,440 Climbing Miami Center
06:23PM 27.2647 -80.8264 339° North 417 480 31,300 1,200 Climbing Miami Center
06:24PM 27.3619 -80.8603 343° North 417 480 32,400 840 Climbing Miami Center
06:25PM 27.4672 -80.9036 340° North 406 467 33,000 300 Climbing Miami Center
06:26PM 27.5808 -80.9475 341° North 406 467 33,000  Level Miami Center
06:27PM 27.6922 -80.9914 341° North 411 473 33,000  Level Miami Center
06:28PM 27.8017 -81.0353 340° North 416 479 33,000  Level Miami Center
06:29PM 27.9108 -81.0814 340° North 416 479 33,000  Level Miami Center
06:30PM 28.0347 -81.1308 341° North 422 486 33,000  Level Miami Center
06:31PM 28.1336 -81.1722 340° North 422 486 33,000  Level Miami Center
06:32PM 28.2572 -81.2217 341° North 422 486 33,000  Level Miami Center
06:33PM 28.3542 -81.2608 340° North 422 486 33,000  Level Miami Center
06:34PM 28.4697 -81.3056 341° North 428 493 33,000  Level Miami Center
06:35PM 28.6042 -81.3581 341° North 429 494 33,000  Level Jacksonville Center
06:36PM 28.7172 -81.3942 344° North 424 488 33,000  Level Jacksonville Center
06:37PM 28.8283 -81.4328 343° North 424 488 33,000  Level Jacksonville Center
06:38PM 28.9433 -81.4714 344° North 424 488 33,000  Level Jacksonville Center
06:39PM 29.0567 -81.5078 344° North 424 488 33,000  Level Jacksonville Center
06:40PM 29.1697 -81.5442 344° North 419 482 33,000  Level Jacksonville Center
06:41PM 29.2933 -81.5853 344° North 419 482 33,000  Level Jacksonville Center
06:42PM 29.4064 -81.6244 343° North 419 482 33,000  Level Jacksonville Center
06:43PM 29.5194 -81.6636 343° North 419 482 33,000  Level Jacksonville Center
06:44PM 29.6325 -81.7003 344° North 419 482 33,000  Level Jacksonville Center
06:45PM 29.7478 -81.7372 344° North 419 482 33,000  Level Jacksonville Center
06:46PM 29.8608 -81.7764 343° North 419 482 33,000  Level Jacksonville Center
06:47PM 29.9717 -81.8136 344° North 419 482 33,000  Level Jacksonville Center
06:48PM 30.0808 -81.8603 340° North 419 482 33,000  Level Jacksonville Center
06:49PM 30.1978 -81.8686 356° North 412 474 33,000  Level Jacksonville Center
06:50PM 30.3189 -81.8794 356° North 425 489 33,000  Level Jacksonville Center
06:51PM 30.4358 -81.8856 357° North 422 486 33,000  Level Jacksonville Center
06:52PM 30.5550 -81.8939 357° North 417 480 33,000  Level Jacksonville Center
06:53PM 30.6656 -81.9097 353° North 423 487 33,000  Level Jacksonville Center
06:54PM 30.7828 -81.9206 355° North 423 487 33,000  Level Jacksonville Center
06:55PM 30.8997 -81.9289 357° North 423 487 33,000  Level Jacksonville Center
06:56PM 31.0147 -81.9375 356° North 423 487 33,000  Level Jacksonville Center
06:57PM 31.1336 -81.9461 356° North 423 487 33,000  Level Jacksonville Center
06:58PM 31.2486 -81.9619 353° North 423 487 33,000  Level Jacksonville Center
06:59PM 31.3761 -81.9678 358° North 423 487 33,000  Level Jacksonville Center
07:00PM 31.4950 -81.9739 357° North 417 480 33,000  Level Jacksonville Center
07:01PM 31.6122 -81.9850 355° North 426 490 33,000  Level Jacksonville Center
07:02PM 31.7186 -81.9939 356° North 426 490 33,000  Level Jacksonville Center
07:03PM 31.8481 -82.0072 355° North 426 490 33,000  Level Jacksonville Center
07:06PM 32.1353 -82.0325 356° North 431 496 33,000  Level Atlanta Center
07:07PM 32.2542 -82.0397 357° North 425 489 33,000  Level Atlanta Center
07:08PM 32.3692 -82.0494 356° North 425 489 33,000  Level Atlanta Center
07:09PM 32.4883 -82.0589 356° North 425 489 33,000  Level Atlanta Center
07:10PM 32.6075 -82.0686 356° North 425 489 33,000  Level Atlanta Center
07:11PM 32.7225 -82.0808 355° North 425 489 33,000  Level Atlanta Center
07:12PM 32.8436 -82.0881 357° North 425 489 33,000  Level Atlanta Center
07:13PM 32.9608 -82.1003 355° North 425 489 33,000  Level Atlanta Center
07:14PM 33.0778 -82.1075 357° North 425 489 33,000  Level Atlanta Center
07:15PM 33.1969 -82.1197 355° North 425 489 33,000  Level Atlanta Center
07:16PM 33.3161 -82.1297 356° North 425 489 33,000  Level Atlanta Center
07:17PM 33.4353 -82.1394 356° North 425 489 33,000  Level Atlanta Center
07:18PM 33.5539 -82.1169 North 425 489 33,000  Level Atlanta Center
07:19PM 33.6639 -82.0869 13° North 430 495 33,000  Level Atlanta Center
07:20PM 33.7844 -82.0592 11° North 435 501 33,000  Level Atlanta Center
07:21PM 33.9072 -82.0339 10° North 440 506 33,000  Level Atlanta Center
07:22PM 34.0278 -82.0086 10° North 440 506 33,000  Level Atlanta Center
07:23PM 34.1486 -81.9806 11° North 440 506 33,000  Level Atlanta Center
07:24PM 34.2711 -81.9525 11° North 446 513 33,000  Level Atlanta Center
07:25PM 34.3958 -81.9267 10° North 446 513 33,000  Level Atlanta Center
07:26PM 34.5144 -81.8986 11° North 446 513 33,000  Level Atlanta Center
07:27PM 34.6369 -81.8703 11° North 446 513 33,000  Level Atlanta Center
07:28PM 34.7619 -81.8492 North 451 519 33,000  Level Atlanta Center
07:29PM 34.8844 -81.8206 11° North 446 513 33,000  Level Atlanta Center
07:30PM 35.0050 -81.7894 12° North 441 507 33,000  Level Atlanta Center
07:31PM 35.1275 -81.7608 11° North 451 519 33,000  Level Atlanta Center
07:32PM 35.2625 -81.7317 10° North 446 513 33,000  Level Atlanta Center
07:33PM 35.3831 -81.7028 11° North 451 519 33,000  Level Atlanta Center
07:34PM 35.5078 -81.6764 10° North 446 513 33,000  Level Atlanta Center
07:35PM 35.6303 -81.6447 12° North 446 513 33,000  Level Atlanta Center
07:36PM 35.7547 -81.6156 11° North 451 519 33,000  Level Atlanta Center
07:37PM 35.8650 -81.5892 11° North 445 512 33,000  Level Atlanta Center
07:38PM 35.9872 -81.5597 11° North 451 519 33,000  Level Atlanta Center
07:39PM 36.1097 -81.5303 11° North 445 512 33,000  Level Atlanta Center
07:40PM 36.2300 -81.4983 12° North 446 513 33,000  Level Atlanta Center
07:41PM 36.3547 -81.4711 10° North 451 519 33,000  Level Atlanta Center
07:43PM 36.6042 -81.4103 11° North 449 517 33,000  Level Indianapolis Center
07:44PM 36.7239 -81.3814 11° North 450 518 33,000  Level Indianapolis Center
07:45PM 36.8472 -81.3533 10° North 457 526 33,000  Level Indianapolis Center
07:46PM 36.9903 -81.3189 11° North 449 517 33,000  Level Indianapolis Center
07:47PM 37.1058 -81.2917 11° North 449 517 33,000  Level Indianapolis Center
07:48PM 37.2272 -81.2975 358° North 438 504 33,000  Level Indianapolis Center
07:49PM 37.3483 -81.2994 359° North 440 506 33,000  Level Indianapolis Center
07:50PM 37.4908 -81.3011 359° North 439 505 33,000  Level Indianapolis Center
07:51PM 37.6108 -81.3017 360° North 441 507 33,000  Level Indianapolis Center
07:52PM 37.7308 -81.3039 359° North 442 509 33,000  Level Indianapolis Center
07:53PM 37.8558 -81.3050 360° North 442 509 33,000  Level Indianapolis Center
07:54PM 37.9792 -81.3078 359° North 441 507 33,000  Level Indianapolis Center
07:55PM 38.1036 -81.3081 360° North 447 514 33,000  Level Indianapolis Center
07:56PM 38.2525 -81.3100 359° North 448 516 33,000  Level Indianapolis Center
07:57PM 38.3706 -81.3447 347° North 439 505 33,000  Level Indianapolis Center
07:58PM 38.4864 -81.3894 343° North 436 502 33,000  Level Indianapolis Center
07:59PM 38.6022 -81.4322 344° North 435 501 33,000  Level Indianapolis Center
08:00PM 38.7247 -81.4681 347° North 443 510 33,000  Level Indianapolis Center
08:01PM 38.8592 -81.5081 347° North 444 511 33,000  Level Indianapolis Center
08:02PM 38.9797 -81.5433 347° North 445 512 33,000  Level Indianapolis Center
08:03PM 39.0997 -81.5792 347° North 443 510 33,000 -120 Level Indianapolis Center
08:04PM 39.2222 -81.6139 348° North 449 517 32,800 -420 Descending Indianapolis Center
08:05PM 39.3433 -81.6492 347° North 447 514 32,200 -600 Descending Indianapolis Center
08:06PM 39.4653 -81.6869 347° North 449 517 31,600 -840 Descending Indianapolis Center
08:08PM 39.6094 -81.7286 347° North 442 509 30,600 -840 Descending Indianapolis Center
08:09PM 39.7156 -81.7628 346° North 444 511 30,000 -300 Descending Indianapolis Center
08:10PM 39.8383 -81.7986 347° North 451 519 30,000  Level Indianapolis Center
08:11PM 39.9847 -81.8419 347° North 452 520 30,000  Level Indianapolis Center
08:12PM 40.1078 -81.8794 347° North 454 522 30,000  Level Indianapolis Center
08:13PM 40.2397 -81.9186 347° North 457 526 30,000  Level Indianapolis Center
08:14PM 40.3656 -81.9581 347° North 459 528 30,000  Level Indianapolis Center
08:15PM 40.4911 -81.9953 347° North 458 527 30,000  Level Indianapolis Center
08:16PM 40.6197 -82.0267 350° North 463 533 30,000 -240 Level Indianapolis Center
08:17PM 40.7511 -82.0503 352° North 469 540 29,600 -900 Descending Indianapolis Center
08:18PM 40.8650 -82.1264 333° Northwest 464 534 28,200 -1,500 Descending Cleveland Center
08:19PM 40.9769 -82.2136 330° Northwest 459 528 26,600 -1,920 Descending Cleveland Center
08:20PM 41.0833 -82.2925 331° Northwest 439 505 24,300 -2,580 Descending Cleveland Center
08:22PM 41.2847 -82.4447 330° Northwest 411 473 18,700 -2,640 Descending Cleveland Center
08:23PM 41.3817 -82.5178 331° Northwest 400 460 16,300 -2,280 Descending Cleveland Center
08:24PM 41.4756 -82.5878 331° Northwest 387 445 14,000 -2,040 Descending Cleveland Center
08:24PM 41.5325 -82.6319 330° Northwest 379 436 13,300 -1,080 Descending Cleveland Center
08:25PM 41.5794 -82.6678 330° Northwest 368 423 12,900 -840 Descending Cleveland Center
08:25PM 41.5839 -82.6719 325° Northwest 361 415 12,800 -780 Descending Cleveland Center
08:26PM 41.6606 -82.7283 331° Northwest 328 377 12,100 -720 Descending Cleveland Center
08:26PM 41.6633 -82.7325 312° West 316 364 12,100 -120 Level Cleveland Center
08:27PM 41.7344 -82.7892 329° Northwest 297 342 12,000 -540 Descending Cleveland Center
08:28PM 41.7956 -82.8617 319° Northwest 302 348 11,100 -1,080 Descending Cleveland Center
08:29PM 41.8631 -82.9461 317° Northwest 301 346 9,900 -1,080 Descending Cleveland Center
08:29PM 41.8572 -82.9364 129° Southeast 300 345 10,000 -1,200 Climbing Cleveland Center
08:30PM 41.9211 -83.0128 318° Northwest 277 319 8,700 -1,200 Descending Cleveland Center
08:30PM 41.9164 -83.0078 142° Southeast 289 333 8,800 -1,380 Climbing Cleveland Center
08:31PM 41.9419 -83.0969 291° West 214 246 7,300 -1,260 Descending Cleveland Center
08:31PM 41.9411 -83.0817 94° East 237 273 7,500 -840 Climbing Cleveland Center
08:32PM 41.9253 -83.1789 258° West 218 251 6,500 -1,020 Descending Cleveland Center
08:32PM 41.9236 -83.1797 200° South 225 259 6,500 -660 Level Cleveland Center
08:33PM 41.9033 -83.2606 251° West 225 259 5,800 -900 Descending Cleveland Center
08:34PM 41.8858 -83.3361 253° West 217 250 4,800 -1,020 Descending Cleveland Center
08:34PM 41.8847 -83.3364 191° South 218 251 4,800 -720 Level Cleveland Center
08:35PM 41.8553 -83.4047 240° Southwest 217 250 4,100 -780 Descending Cleveland Center
08:35PM 41.8539 -83.4081 241° Southwest 221 254 4,000  Descending Cleveland Center
08:36PM 41.8450 -83.4817 261° West 212 244 4,100 60 Climbing Cleveland Center
08:36PM 41.8442 -83.4803 129° Southeast 229 264 4,100 -120 Level Cleveland Center
08:37PM 41.8789 -83.5458 305° West 224 258 4,000 -60 Descending Cleveland Center
08:38PM 41.9397 -83.5350 North 226 260 4,000  Level Cleveland Center
08:39PM 41.9881 -83.5022 27° Northeast 186 214 4,000  Level Cleveland Center
08:39PM 41.9933 -83.4981 30° Northeast 185 213 4,000  Level Cleveland Center
08:40PM 42.0344 -83.4694 27° Northeast 185 213 4,000  Level Cleveland Center
08:41PM 42.0381 -83.4650 42° Northeast 185 213 4,000 -660 Level Cleveland Center
08:42PM 42.0833 -83.4333 27° Northeast 184 212 3,200 -960 Descending Cleveland Center
08:42PM 42.1189 -83.4083 28° Northeast 161 185 2,400 -1,020 Descending Cleveland Center
08:43PM 42.1242 -83.4025 39° Northeast 178 205 2,200 -720 Descending Cleveland Center
08:43PM 42.1544 -83.3825 26° Northeast 130 150 1,700 -720 Descending Cleveland Center
08:44PM 42.1578 -83.3786 41° Northeast 156 180 1,500 -840 Descending Cleveland Center
08:44PM 42.1858 -83.3586 28° Northeast 127 146 900 -780 Descending Cleveland Center
08:45PM 42.1947 -83.3519 29° Northeast 136 157 700 -600 Descending Cleveland Center